Midland International Airport
KMAF : now visible

Airfield :











YOU CAN JOIN US ON...

 
LOGIN :

Register | Disclaimer

   EN    FR    IT 

 









Legend :    VFR   Marginal VFR   IFR   Intensive IFR   Very Intensive IFR
Visi :
Ceiling :
>= 8 km
>= 3000ft
5 to 8 km
1000 to 3000 ft
1500m to 5 km
500 to 1000 ft
800 to 1500m
200 to 500 ft
< 800m
< 200 ft
Symbols :   Thunderstorms  Fog  Heavy snow  Heavy precipitations  Wind > 20 kt






- Airport Elevation : 2871 ft
- IATA code : MAF


KMAF - Midland International

CURRENT METAR :
  • 110253Z 18014KT 10SM CLR 33/12 A2995 RMK AO2 SLP088 T03280122 53008 $

EXPIRED METARs :
  • 110153Z 17012KT 10SM CLR 34/11 A2993 RMK AO2 SLP082 T03390111 $
  • 110053Z 17013KT 10SM CLR 35/12 A2993 RMK AO2 SLP083 T03500117 $

TAF KMAF
Valid from the 11 at 00:00 until the 12 at 00:00 UTC


102320Z 1100/1124 18014G20KT P6SM FEW250
FM110100 17011KT P6SM FEW250
FM111500 16014G20KT P6SM SKC
KZFW FIR / North America



MET'MAP, your aeronautical weather chart ! - Copyright ORBIFLY December 2007 - Disclaimer

ORBIFLY MET'MAP TEAM :

Programming & Development : Alexandra Zaïnal
Concept & original design : Baudouin d'Aumeries
Assistance for programming : Marc-Olivier Méhu
Technical & hardware support : Manuel Goepfert

Contact : metmap@orbifly.com




SOURCES & CREDITS :

   NOAA       Earth
Advisory